sensor_id;sensor_type;location;lat;lon;timestamp;pressure;altitude;pressure_sealevel;temperature;humidity
65157;BME280;52745;49.794;18.258;2023-03-05T00:02:04;-16010.09;;;2.72;81.79
65157;BME280;52745;49.794;18.258;2023-03-05T00:04:31;-16010.94;;;2.75;81.83
65157;BME280;52745;49.794;18.258;2023-03-05T00:06:58;-16012.31;;;2.80;81.65
65157;BME280;52745;49.794;18.258;2023-03-05T00:09:25;-16013.81;;;2.86;81.45
65157;BME280;52745;49.794;18.258;2023-03-05T00:11:52;-16013.25;;;2.84;80.92
65157;BME280;52745;49.794;18.258;2023-03-05T00:14:18;-16012.84;;;2.82;81.32
65157;BME280;52745;49.794;18.258;2023-03-05T00:16:45;-16013.25;;;2.84;81.38
65157;BME280;52745;49.794;18.258;2023-03-05T00:19:12;-16012.16;;;2.80;80.97
65157;BME280;52745;49.794;18.258;2023-03-05T00:21:41;-16008.06;;;2.64;81.78
65157;BME280;52745;49.794;18.258;2023-03-05T00:24:11;-16000.66;;;2.37;83.02
65157;BME280;52745;49.794;18.258;2023-03-05T00:26:39;-15992.59;;;2.06;83.57
65157;BME280;52745;49.794;18.258;2023-03-05T00:29:06;-15992.72;;;2.07;83.78
65157;BME280;52745;49.794;18.258;2023-03-05T00:31:35;-15989.97;;;1.97;83.57
65157;BME280;52745;49.794;18.258;2023-03-05T00:34:05;-15990.94;;;2.00;83.02
65157;BME280;52745;49.794;18.258;2023-03-05T00:36:32;-15992.84;;;2.07;81.14
65157;BME280;52745;49.794;18.258;2023-03-05T00:38:59;-15989.72;;;1.96;79.66
65157;BME280;52745;49.794;18.258;2023-03-05T00:41:26;-15986.69;;;1.84;79.22
65157;BME280;52745;49.794;18.258;2023-03-05T00:43:53;-15985.47;;;1.80;79.00
65157;BME280;52745;49.794;18.258;2023-03-05T00:46:20;-15985.06;;;1.78;77.68
65157;BME280;52745;49.794;18.258;2023-03-05T00:48:48;-15986.16;;;1.82;78.20
65157;BME280;52745;49.794;18.258;2023-03-05T00:51:15;-15980.69;;;1.62;78.74
65157;BME280;52745;49.794;18.258;2023-03-05T00:53:41;-15980.53;;;1.61;78.74
65157;BME280;52745;49.794;18.258;2023-03-05T00:56:08;-15978.34;;;1.53;78.95
65157;BME280;52745;49.794;18.258;2023-03-05T00:58:36;-15976.84;;;1.48;79.69
65157;BME280;52745;49.794;18.258;2023-03-05T01:01:04;-15975.88;;;1.44;79.81
65157;BME280;52745;49.794;18.258;2023-03-05T01:03:34;-15976.56;;;1.47;79.61
65157;BME280;52745;49.794;18.258;2023-03-05T01:06:05;-15977.94;;;1.52;79.88
65157;BME280;52745;49.794;18.258;2023-03-05T01:08:33;-15974.38;;;1.38;80.15
65157;BME280;52745;49.794;18.258;2023-03-05T01:11:01;-15976.16;;;1.45;80.26
65157;BME280;52745;49.794;18.258;2023-03-05T01:13:28;-15976.00;;;1.44;80.45
65157;BME280;52745;49.794;18.258;2023-03-05T01:15:55;-15977.38;;;1.50;80.23
65157;BME280;52745;49.794;18.258;2023-03-05T01:18:22;-15978.06;;;1.52;80.31
65157;BME280;52745;49.794;18.258;2023-03-05T01:20:49;-15978.19;;;1.53;80.18
65157;BME280;52745;49.794;18.258;2023-03-05T01:23:15;-15977.13;;;1.49;80.46
65157;BME280;52745;49.794;18.258;2023-03-05T01:25:42;-15978.34;;;1.53;80.17
65157;BME280;52745;49.794;18.258;2023-03-05T01:28:09;-15979.44;;;1.57;80.62
65157;BME280;52745;49.794;18.258;2023-03-05T01:30:37;-15978.34;;;1.53;80.97
65157;BME280;52745;49.794;18.258;2023-03-05T01:33:03;-15980.53;;;1.61;80.74
65157;BME280;52745;49.794;18.258;2023-03-05T01:35:30;-15984.22;;;1.75;80.14
65157;BME280;52745;49.794;18.258;2023-03-05T01:37:57;-15987.53;;;1.88;79.63
65157;BME280;52745;49.794;18.258;2023-03-05T01:40:26;-15989.72;;;1.96;79.75
65157;BME280;52745;49.794;18.258;2023-03-05T01:45:38;-15992.44;;;2.06;78.39
65157;BME280;52745;49.794;18.258;2023-03-05T01:48:25;-15993.81;;;2.11;78.47
65157;BME280;52745;49.794;18.258;2023-03-05T01:50:52;-15993.97;;;2.12;78.07
65157;BME280;52745;49.794;18.258;2023-03-05T01:53:19;-15992.03;;;2.04;78.71
65157;BME280;52745;49.794;18.258;2023-03-05T01:55:45;-15990.81;;;2.00;78.74
65157;BME280;52745;49.794;18.258;2023-03-05T01:58:12;-15988.34;;;1.91;79.32
65157;BME280;52745;49.794;18.258;2023-03-05T02:00:45;-15984.78;;;1.77;79.94
65157;BME280;52745;49.794;18.258;2023-03-05T02:03:13;-15985.88;;;1.81;80.21
65157;BME280;52745;49.794;18.258;2023-03-05T02:05:41;-15987.25;;;1.86;79.61
65157;BME280;52745;49.794;18.258;2023-03-05T02:08:13;-15989.84;;;1.96;79.32
65157;BME280;52745;49.794;18.258;2023-03-05T02:10:58;-15988.34;;;1.91;78.96
65157;BME280;52745;49.794;18.258;2023-03-05T02:13:34;-15984.09;;;1.75;80.11
65157;BME280;52745;49.794;18.258;2023-03-05T02:16:04;-15984.09;;;1.75;79.90
65157;BME280;52745;49.794;18.258;2023-03-05T02:18:31;-15981.63;;;1.65;80.93
65157;BME280;52745;49.794;18.258;2023-03-05T02:21:05;-15981.50;;;1.65;80.32
65157;BME280;52745;49.794;18.258;2023-03-05T02:23:34;-15983.28;;;1.72;80.60
65157;BME280;52745;49.794;18.258;2023-03-05T02:26:04;-15982.31;;;1.68;81.18
65157;BME280;52745;49.794;18.258;2023-03-05T02:28:37;-15983.81;;;1.74;81.28
65157;BME280;52745;49.794;18.258;2023-03-05T02:31:16;-15985.88;;;1.81;80.50
65157;BME280;52745;49.794;18.258;2023-03-05T02:33:44;-15986.00;;;1.82;79.97
65157;BME280;52745;49.794;18.258;2023-03-05T02:36:12;-15984.78;;;1.77;80.32
65157;BME280;52745;49.794;18.258;2023-03-05T02:38:40;-15983.13;;;1.71;80.42
65157;BME280;52745;49.794;18.258;2023-03-05T02:41:08;-15980.41;;;1.61;80.06
65157;BME280;52745;49.794;18.258;2023-03-05T02:43:36;-15982.03;;;1.67;80.50
65157;BME280;52745;49.794;18.258;2023-03-05T02:46:03;-15981.09;;;1.63;80.67
65157;BME280;52745;49.794;18.258;2023-03-05T02:48:31;-15976.00;;;1.44;80.98
65157;BME280;52745;49.794;18.258;2023-03-05T02:50:58;-15977.25;;;1.49;80.42
65157;BME280;52745;49.794;18.258;2023-03-05T02:53:26;-15975.88;;;1.44;80.65
65157;BME280;52745;49.794;18.258;2023-03-05T02:55:53;-15978.34;;;1.53;80.92
65157;BME280;52745;49.794;18.258;2023-03-05T02:58:19;-15978.47;;;1.54;81.55
65157;BME280;52745;49.794;18.258;2023-03-05T03:00:46;-15980.53;;;1.61;81.72
65157;BME280;52745;49.794;18.258;2023-03-05T03:03:13;-15978.75;;;1.55;82.37
65157;BME280;52745;49.794;18.258;2023-03-05T03:05:40;-15976.97;;;1.48;83.05
65157;BME280;52745;49.794;18.258;2023-03-05T03:08:07;-15975.06;;;1.41;83.82
65157;BME280;52745;49.794;18.258;2023-03-05T03:10:34;-15973.81;;;1.36;84.30
65157;BME280;52745;49.794;18.258;2023-03-05T03:13:00;-15970.69;;;1.24;84.99
65157;BME280;52745;49.794;18.258;2023-03-05T03:15:27;-15968.06;;;1.15;83.92
65157;BME280;52745;49.794;18.258;2023-03-05T03:17:54;-15970.69;;;1.24;84.19
65157;BME280;52745;49.794;18.258;2023-03-05T03:20:21;-15963.56;;;0.98;84.18
65157;BME280;52745;49.794;18.258;2023-03-05T03:22:48;-15964.91;;;1.03;83.02
65157;BME280;52745;49.794;18.258;2023-03-05T03:25:19;-15965.34;;;1.05;82.49
65157;BME280;52745;49.794;18.258;2023-03-05T03:27:46;-15966.28;;;1.08;82.49
65157;BME280;52745;49.794;18.258;2023-03-05T03:30:14;-15965.59;;;1.06;82.99
65157;BME280;52745;49.794;18.258;2023-03-05T03:32:41;-15962.59;;;0.94;82.54
65157;BME280;52745;49.794;18.258;2023-03-05T03:35:09;-15957.38;;;0.75;82.50
65157;BME280;52745;49.794;18.258;2023-03-05T03:37:36;-15957.66;;;0.76;82.96
65157;BME280;52745;49.794;18.258;2023-03-05T03:40:04;-15959.03;;;0.81;83.09
65157;BME280;52745;49.794;18.258;2023-03-05T03:42:32;-15957.38;;;0.75;84.05
65157;BME280;52745;49.794;18.258;2023-03-05T03:44:59;-15955.88;;;0.69;84.16
65157;BME280;52745;49.794;18.258;2023-03-05T03:47:28;-15955.19;;;0.67;84.44
65157;BME280;52745;49.794;18.258;2023-03-05T03:49:55;-15953.13;;;0.59;84.92
65157;BME280;52745;49.794;18.258;2023-03-05T03:52:24;-15950.53;;;0.49;85.78
65157;BME280;52745;49.794;18.258;2023-03-05T03:54:52;-15950.81;;;0.50;86.02
65157;BME280;52745;49.794;18.258;2023-03-05T03:57:20;-15955.47;;;0.68;86.36
65157;BME280;52745;49.794;18.258;2023-03-05T03:59:47;-15960.94;;;0.88;85.74
65157;BME280;52745;49.794;18.258;2023-03-05T04:02:15;-15958.34;;;0.78;86.95
65157;BME280;52745;49.794;18.258;2023-03-05T04:04:42;-15958.22;;;0.78;88.42
65157;BME280;52745;49.794;18.258;2023-03-05T04:07:09;-15956.28;;;0.71;89.26
65157;BME280;52745;49.794;18.258;2023-03-05T04:09:36;-15953.00;;;0.58;90.51
65157;BME280;52745;49.794;18.258;2023-03-05T04:12:03;-15951.50;;;0.53;91.36
65157;BME280;52745;49.794;18.258;2023-03-05T04:14:30;-15954.50;;;0.64;91.62
65157;BME280;52745;49.794;18.258;2023-03-05T04:16:56;-15958.75;;;0.80;90.99
65157;BME280;52745;49.794;18.258;2023-03-05T04:19:23;-15959.84;;;0.84;90.63
65157;BME280;52745;49.794;18.258;2023-03-05T04:21:50;-15962.31;;;0.93;91.10
65157;BME280;52745;49.794;18.258;2023-03-05T04:24:17;-15963.13;;;0.96;90.14
65157;BME280;52745;49.794;18.258;2023-03-05T04:26:44;-15962.88;;;0.95;90.74
65157;BME280;52745;49.794;18.258;2023-03-05T04:29:10;-15964.38;;;1.01;89.88
65157;BME280;52745;49.794;18.258;2023-03-05T04:31:37;-15964.78;;;1.02;89.20
65157;BME280;52745;49.794;18.258;2023-03-05T04:34:04;-15963.81;;;0.99;89.81
65157;BME280;52745;49.794;18.258;2023-03-05T04:36:31;-15964.09;;;1.00;89.53
65157;BME280;52745;49.794;18.258;2023-03-05T04:38:58;-15958.47;;;0.79;90.48
65157;BME280;52745;49.794;18.258;2023-03-05T04:41:24;-15957.13;;;0.74;91.49
65157;BME280;52745;49.794;18.258;2023-03-05T04:43:51;-15955.06;;;0.66;92.54
65157;BME280;52745;49.794;18.258;2023-03-05T04:46:18;-15954.09;;;0.63;92.81
65157;BME280;52745;49.794;18.258;2023-03-05T04:48:45;-15953.81;;;0.61;93.19
65157;BME280;52745;49.794;18.258;2023-03-05T04:51:11;-15951.91;;;0.54;92.44
65157;BME280;52745;49.794;18.258;2023-03-05T04:53:38;-15952.44;;;0.56;92.59
65157;BME280;52745;49.794;18.258;2023-03-05T04:56:05;-15953.41;;;0.60;92.76
65157;BME280;52745;49.794;18.258;2023-03-05T04:58:32;-15957.53;;;0.75;91.96
65157;BME280;52745;49.794;18.258;2023-03-05T05:01:00;-15958.34;;;0.78;91.09
65157;BME280;52745;49.794;18.258;2023-03-05T05:03:28;-15960.00;;;0.85;91.15
65157;BME280;52745;49.794;18.258;2023-03-05T05:05:56;-15960.41;;;0.86;91.86
65157;BME280;52745;49.794;18.258;2023-03-05T05:08:23;-15958.91;;;0.80;92.01
65157;BME280;52745;49.794;18.258;2023-03-05T05:11:04;-15961.22;;;0.89;92.70
65157;BME280;52745;49.794;18.258;2023-03-05T05:13:32;-15960.69;;;0.87;92.71
65157;BME280;52745;49.794;18.258;2023-03-05T05:15:59;-15959.03;;;0.81;93.21
65157;BME280;52745;49.794;18.258;2023-03-05T05:18:26;-15958.63;;;0.79;94.21
65157;BME280;52745;49.794;18.258;2023-03-05T05:20:52;-15959.16;;;0.81;94.09
65157;BME280;52745;49.794;18.258;2023-03-05T05:23:19;-15963.28;;;0.97;94.08
65157;BME280;52745;49.794;18.258;2023-03-05T05:25:57;-15961.91;;;0.92;93.62
65157;BME280;52745;49.794;18.258;2023-03-05T05:28:25;-15961.22;;;0.89;93.49
65157;BME280;52745;49.794;18.258;2023-03-05T05:30:52;-15963.13;;;0.96;93.19
65157;BME280;52745;49.794;18.258;2023-03-05T05:33:19;-15964.38;;;1.01;92.94
65157;BME280;52745;49.794;18.258;2023-03-05T05:35:47;-15956.84;;;0.73;94.08
65157;BME280;52745;49.794;18.258;2023-03-05T05:38:14;-15956.56;;;0.72;94.24
65157;BME280;52745;49.794;18.258;2023-03-05T05:40:40;-15958.22;;;0.78;94.28
65157;BME280;52745;49.794;18.258;2023-03-05T05:43:07;-15955.19;;;0.67;94.88
65157;BME280;52745;49.794;18.258;2023-03-05T05:45:36;-15958.06;;;0.77;94.29
65157;BME280;52745;49.794;18.258;2023-03-05T05:48:03;-15956.97;;;0.73;94.65
65157;BME280;52745;49.794;18.258;2023-03-05T05:50:30;-15956.56;;;0.72;94.23
65157;BME280;52745;49.794;18.258;2023-03-05T05:52:57;-15954.22;;;0.63;94.66
65157;BME280;52745;49.794;18.258;2023-03-05T05:55:23;-15953.81;;;0.61;94.97
65157;BME280;52745;49.794;18.258;2023-03-05T05:57:50;-15952.44;;;0.56;95.02
65157;BME280;52745;49.794;18.258;2023-03-05T06:00:17;-15948.34;;;0.41;95.81
65157;BME280;52745;49.794;18.258;2023-03-05T06:02:44;-15948.22;;;0.40;95.75
65157;BME280;52745;49.794;18.258;2023-03-05T06:05:13;-15947.09;;;0.36;96.51
65157;BME280;52745;49.794;18.258;2023-03-05T06:07:40;-15948.88;;;0.43;95.94
65157;BME280;52745;49.794;18.258;2023-03-05T06:10:08;-15951.78;;;0.54;96.59
65157;BME280;52745;49.794;18.258;2023-03-05T06:12:35;-15951.91;;;0.54;96.20
65157;BME280;52745;49.794;18.258;2023-03-05T06:15:02;-15952.03;;;0.55;96.55
65157;BME280;52745;49.794;18.258;2023-03-05T06:17:30;-15952.19;;;0.55;96.76
65157;BME280;52745;49.794;18.258;2023-03-05T06:19:57;-15953.97;;;0.62;96.34
65157;BME280;52745;49.794;18.258;2023-03-05T06:22:24;-15954.09;;;0.63;96.68
65157;BME280;52745;49.794;18.258;2023-03-05T06:24:51;-15958.06;;;0.77;97.09
65157;BME280;52745;49.794;18.258;2023-03-05T06:27:18;-15960.69;;;0.87;96.47
65157;BME280;52745;49.794;18.258;2023-03-05T06:29:45;-15961.50;;;0.90;96.13
65157;BME280;52745;49.794;18.258;2023-03-05T06:32:12;-15962.03;;;0.92;95.91
65157;BME280;52745;49.794;18.258;2023-03-05T06:34:38;-15960.53;;;0.87;96.07
65157;BME280;52745;49.794;18.258;2023-03-05T06:37:06;-15961.50;;;0.90;96.17
65157;BME280;52745;49.794;18.258;2023-03-05T06:39:32;-15963.69;;;0.98;96.25
65157;BME280;52745;49.794;18.258;2023-03-05T06:41:59;-15963.13;;;0.96;96.14
65157;BME280;52745;49.794;18.258;2023-03-05T06:44:26;-15966.00;;;1.07;96.18
65157;BME280;52745;49.794;18.258;2023-03-05T06:46:53;-15966.69;;;1.10;96.01
65157;BME280;52745;49.794;18.258;2023-03-05T06:49:20;-15965.88;;;1.07;96.57
65157;BME280;52745;49.794;18.258;2023-03-05T06:51:47;-15967.13;;;1.11;95.66
65157;BME280;52745;49.794;18.258;2023-03-05T06:54:15;-15967.94;;;1.14;96.33
65157;BME280;52745;49.794;18.258;2023-03-05T06:56:45;-15966.44;;;1.09;95.79
65157;BME280;52745;49.794;18.258;2023-03-05T06:59:13;-15966.84;;;1.10;95.75
65157;BME280;52745;49.794;18.258;2023-03-05T07:01:41;-15967.94;;;1.14;95.57
65157;BME280;52745;49.794;18.258;2023-03-05T07:04:07;-15967.38;;;1.12;95.93
65157;BME280;52745;49.794;18.258;2023-03-05T07:06:36;-15970.00;;;1.22;96.20
65157;BME280;52745;49.794;18.258;2023-03-05T07:09:10;-15972.47;;;1.31;95.39
65157;BME280;52745;49.794;18.258;2023-03-05T07:11:39;-15969.44;;;1.20;95.43
65157;BME280;52745;49.794;18.258;2023-03-05T07:14:06;-15969.72;;;1.21;95.44
65157;BME280;52745;49.794;18.258;2023-03-05T07:16:33;-15963.56;;;0.98;97.33
65157;BME280;52745;49.794;18.258;2023-03-05T07:19:03;-15965.19;;;1.04;97.07
65157;BME280;52745;49.794;18.258;2023-03-05T07:21:32;-15966.84;;;1.10;96.91
65157;BME280;52745;49.794;18.258;2023-03-05T07:24:00;-15970.94;;;1.26;95.69
65157;BME280;52745;49.794;18.258;2023-03-05T07:26:27;-15971.63;;;1.28;95.11
65157;BME280;52745;49.794;18.258;2023-03-05T07:28:56;-15975.47;;;1.42;94.97
65157;BME280;52745;49.794;18.258;2023-03-05T07:31:24;-15978.75;;;1.55;95.25
65157;BME280;52745;49.794;18.258;2023-03-05T07:33:58;-15977.25;;;1.49;95.34
65157;BME280;52745;49.794;18.258;2023-03-05T07:36:26;-15981.22;;;1.64;94.53
65157;BME280;52745;49.794;18.258;2023-03-05T07:38:53;-15982.03;;;1.67;93.05
65157;BME280;52745;49.794;18.258;2023-03-05T07:41:20;-15984.91;;;1.78;92.45
65157;BME280;52745;49.794;18.258;2023-03-05T07:43:50;-15986.69;;;1.84;92.36
65157;BME280;52745;49.794;18.258;2023-03-05T07:46:21;-15989.72;;;1.96;92.62
65157;BME280;52745;49.794;18.258;2023-03-05T07:48:48;-15993.28;;;2.09;92.36
65157;BME280;52745;49.794;18.258;2023-03-05T07:51:17;-15997.25;;;2.24;91.33
65157;BME280;52745;49.794;18.258;2023-03-05T07:53:46;-15999.56;;;2.33;90.16
65157;BME280;52745;49.794;18.258;2023-03-05T07:56:29;-16006.56;;;2.59;88.53
65157;BME280;52745;49.794;18.258;2023-03-05T07:59:06;-16005.88;;;2.56;87.02
65157;BME280;52745;49.794;18.258;2023-03-05T08:01:34;-16006.41;;;2.58;86.71
65157;BME280;52745;49.794;18.258;2023-03-05T08:04:02;-16012.44;;;2.81;86.62
65157;BME280;52745;49.794;18.258;2023-03-05T08:06:30;-16016.28;;;2.95;86.28
65157;BME280;52745;49.794;18.258;2023-03-05T08:08:57;-16015.72;;;2.93;86.48
65157;BME280;52745;49.794;18.258;2023-03-05T08:11:25;-16012.97;;;2.83;86.47
65157;BME280;52745;49.794;18.258;2023-03-05T08:13:51;-16017.78;;;3.01;86.24
65157;BME280;52745;49.794;18.258;2023-03-05T08:16:20;-16020.09;;;3.09;85.36
65157;BME280;52745;49.794;18.258;2023-03-05T08:18:47;-16020.38;;;3.10;84.26
65157;BME280;52745;49.794;18.258;2023-03-05T08:21:19;-16021.47;;;3.15;84.56
65157;BME280;52745;49.794;18.258;2023-03-05T08:23:47;-16023.81;;;3.23;82.86
65157;BME280;52745;49.794;18.258;2023-03-05T08:26:16;-16023.81;;;3.23;82.81
65157;BME280;52745;49.794;18.258;2023-03-05T08:28:43;-16020.50;;;3.11;82.35
65157;BME280;52745;49.794;18.258;2023-03-05T08:31:12;-16017.09;;;2.98;81.93
65157;BME280;52745;49.794;18.258;2023-03-05T08:33:39;-16017.38;;;2.99;81.75
65157;BME280;52745;49.794;18.258;2023-03-05T08:36:08;-16019.00;;;3.05;81.90
65157;BME280;52745;49.794;18.258;2023-03-05T08:38:35;-16016.81;;;2.97;81.93
65157;BME280;52745;49.794;18.258;2023-03-05T08:41:02;-16023.94;;;3.24;81.73
65157;BME280;52745;49.794;18.258;2023-03-05T08:43:29;-16025.59;;;3.30;80.95
65157;BME280;52745;49.794;18.258;2023-03-05T08:45:58;-16029.69;;;3.45;79.79
65157;BME280;52745;49.794;18.258;2023-03-05T08:48:26;-16027.91;;;3.39;79.74
65157;BME280;52745;49.794;18.258;2023-03-05T08:50:53;-16026.25;;;3.33;79.24
65157;BME280;52745;49.794;18.258;2023-03-05T08:53:21;-16029.13;;;3.43;79.80
65157;BME280;52745;49.794;18.258;2023-03-05T08:55:56;-16031.88;;;3.53;78.46
65157;BME280;52745;49.794;18.258;2023-03-05T08:58:24;-16034.88;;;3.65;77.24
65157;BME280;52745;49.794;18.258;2023-03-05T09:00:51;-16035.16;;;3.66;75.90
65157;BME280;52745;49.794;18.258;2023-03-05T09:03:18;-16036.38;;;3.70;76.08
65157;BME280;52745;49.794;18.258;2023-03-05T09:05:45;-16035.97;;;3.69;75.48
65157;BME280;52745;49.794;18.258;2023-03-05T09:08:11;-16035.16;;;3.66;75.47
65157;BME280;52745;49.794;18.258;2023-03-05T09:10:40;-16033.25;;;3.59;74.40
65157;BME280;52745;49.794;18.258;2023-03-05T09:13:08;-16034.88;;;3.65;74.57
65157;BME280;52745;49.794;18.258;2023-03-05T09:15:35;-16028.59;;;3.41;76.48
65157;BME280;52745;49.794;18.258;2023-03-05T09:18:02;-16022.84;;;3.20;76.55
65157;BME280;52745;49.794;18.258;2023-03-05T09:20:29;-16024.75;;;3.27;76.38
65157;BME280;52745;49.794;18.258;2023-03-05T09:22:56;-16024.47;;;3.26;75.11
65157;BME280;52745;49.794;18.258;2023-03-05T09:25:23;-16028.03;;;3.39;73.92
65157;BME280;52745;49.794;18.258;2023-03-05T09:27:50;-16029.69;;;3.45;72.59
65157;BME280;52745;49.794;18.258;2023-03-05T09:30:17;-16026.25;;;3.33;71.92
65157;BME280;52745;49.794;18.258;2023-03-05T09:32:44;-16029.69;;;3.45;72.19
65157;BME280;52745;49.794;18.258;2023-03-05T09:35:11;-16031.06;;;3.50;70.01
65157;BME280;52745;49.794;18.258;2023-03-05T09:37:37;-16029.41;;;3.44;69.52
65157;BME280;52745;49.794;18.258;2023-03-05T09:40:05;-16026.13;;;3.32;69.77
65157;BME280;52745;49.794;18.258;2023-03-05T09:42:40;-16027.63;;;3.38;69.33
65157;BME280;52745;49.794;18.258;2023-03-05T09:48:21;-16030.63;;;3.49;68.29
65157;BME280;52745;49.794;18.258;2023-03-05T09:50:57;-16034.34;;;3.63;68.82
65157;BME280;52745;49.794;18.258;2023-03-05T09:56:19;-16030.38;;;3.48;68.37
65157;BME280;52745;49.794;18.258;2023-03-05T09:58:52;-16031.06;;;3.50;67.81
65157;BME280;52745;49.794;18.258;2023-03-05T10:01:22;-16032.97;;;3.58;67.32
65157;BME280;52745;49.794;18.258;2023-03-05T10:03:56;-16029.41;;;3.44;67.54
65157;BME280;52745;49.794;18.258;2023-03-05T10:06:25;-16027.75;;;3.38;68.66
65157;BME280;52745;49.794;18.258;2023-03-05T10:11:56;-16028.59;;;3.41;66.99
65157;BME280;52745;49.794;18.258;2023-03-05T10:14:30;-16033.94;;;3.61;65.83
65157;BME280;52745;49.794;18.258;2023-03-05T10:17:06;-16040.75;;;3.87;65.53
65157;BME280;52745;49.794;18.258;2023-03-05T10:35:44;-16034.47;;;3.63;71.31
65157;BME280;52745;49.794;18.258;2023-03-05T10:41:06;-16045.56;;;4.05;66.92
65157;BME280;52745;49.794;18.258;2023-03-05T10:43:49;-16042.28;;;3.92;66.21
65157;BME280;52745;49.794;18.258;2023-03-05T10:46:21;-16046.94;;;4.10;67.63
65157;BME280;52745;49.794;18.258;2023-03-05T10:48:59;-16047.19;;;4.11;65.54
65157;BME280;52745;49.794;18.258;2023-03-05T10:51:43;-16045.69;;;4.05;62.46
65157;BME280;52745;49.794;18.258;2023-03-05T10:54:20;-16038.84;;;3.80;61.85
65157;BME280;52745;49.794;18.258;2023-03-05T10:57:12;-16039.25;;;3.81;61.14
65157;BME280;52745;49.794;18.258;2023-03-05T11:02:31;-16029.69;;;3.45;61.08
65157;BME280;52745;49.794;18.258;2023-03-05T11:04:58;-16028.03;;;3.39;61.34
65157;BME280;52745;49.794;18.258;2023-03-05T11:10:13;-16031.88;;;3.53;60.91
65157;BME280;52745;49.794;18.258;2023-03-05T11:12:43;-16033.25;;;3.59;60.95
65157;BME280;52745;49.794;18.258;2023-03-05T11:17:41;-16032.16;;;3.55;59.00
65157;BME280;52745;49.794;18.258;2023-03-05T11:23:22;-16026.53;;;3.34;57.74
65157;BME280;52745;49.794;18.258;2023-03-05T11:26:01;-16028.03;;;3.39;58.29
65157;BME280;52745;49.794;18.258;2023-03-05T11:28:32;-16031.31;;;3.51;57.16
65157;BME280;52745;49.794;18.258;2023-03-05T11:33:29;-16031.47;;;3.52;57.11
65157;BME280;52745;49.794;18.258;2023-03-05T11:38:58;-16034.34;;;3.63;57.43
65157;BME280;52745;49.794;18.258;2023-03-05T11:41:34;-16031.59;;;3.52;57.85
65157;BME280;52745;49.794;18.258;2023-03-05T11:44:09;-16028.88;;;3.42;59.61
65157;BME280;52745;49.794;18.258;2023-03-05T11:46:42;-16023.25;;;3.21;59.37
65157;BME280;52745;49.794;18.258;2023-03-05T11:49:15;-16018.47;;;3.03;61.27
65157;BME280;52745;49.794;18.258;2023-03-05T11:57:38;-16013.13;;;2.83;61.60
65157;BME280;52745;49.794;18.258;2023-03-05T12:00:13;-16018.06;;;3.02;59.78
65157;BME280;52745;49.794;18.258;2023-03-05T12:02:40;-16019.00;;;3.05;59.47
65157;BME280;52745;49.794;18.258;2023-03-05T12:05:13;-16026.13;;;3.32;59.50
65157;BME280;52745;49.794;18.258;2023-03-05T12:07:45;-16028.72;;;3.42;58.22
65157;BME280;52745;49.794;18.258;2023-03-05T12:10:15;-16031.19;;;3.51;57.24
65157;BME280;52745;49.794;18.258;2023-03-05T12:12:46;-16034.34;;;3.63;56.78
65157;BME280;52745;49.794;18.258;2023-03-05T12:23:21;-16038.44;;;3.78;54.50
65157;BME280;52745;49.794;18.258;2023-03-05T12:25:56;-16041.72;;;3.90;54.12
65157;BME280;52745;49.794;18.258;2023-03-05T12:31:02;-16051.31;;;4.26;54.21
65157;BME280;52745;49.794;18.258;2023-03-05T12:33:40;-16056.63;;;4.46;52.01
65157;BME280;52745;49.794;18.258;2023-03-05T12:38:51;-16060.31;;;4.60;49.93
65157;BME280;52745;49.794;18.258;2023-03-05T12:46:34;-16057.44;;;4.49;47.88
65157;BME280;52745;49.794;18.258;2023-03-05T12:51:45;-16057.59;;;4.50;45.65
65157;BME280;52745;49.794;18.258;2023-03-05T12:54:33;-16053.34;;;4.34;46.47
65157;BME280;52745;49.794;18.258;2023-03-05T12:57:05;-16052.41;;;4.30;44.77
65157;BME280;52745;49.794;18.258;2023-03-05T12:59:44;-16050.75;;;4.24;46.66
65157;BME280;52745;49.794;18.258;2023-03-05T13:02:34;-16044.06;;;3.99;46.88
65157;BME280;52745;49.794;18.258;2023-03-05T13:05:06;-16041.19;;;3.88;48.20
65157;BME280;52745;49.794;18.258;2023-03-05T13:07:40;-16037.34;;;3.74;49.49
65157;BME280;52745;49.794;18.258;2023-03-05T13:10:23;-16035.84;;;3.68;50.28
65157;BME280;52745;49.794;18.258;2023-03-05T13:12:53;-16035.03;;;3.65;50.44
65157;BME280;52745;49.794;18.258;2023-03-05T13:15:22;-16031.75;;;3.53;51.09
65157;BME280;52745;49.794;18.258;2023-03-05T13:17:58;-16035.28;;;3.66;51.53
65157;BME280;52745;49.794;18.258;2023-03-05T13:20:38;-16034.06;;;3.62;51.90
65157;BME280;52745;49.794;18.258;2023-03-05T13:23:20;-16030.78;;;3.49;52.55
65157;BME280;52745;49.794;18.258;2023-03-05T13:26:01;-16032.84;;;3.57;52.07
65157;BME280;52745;49.794;18.258;2023-03-05T13:28:28;-16028.03;;;3.39;52.38
65157;BME280;52745;49.794;18.258;2023-03-05T13:31:01;-16026.81;;;3.35;52.22
65157;BME280;52745;49.794;18.258;2023-03-05T13:33:31;-16029.97;;;3.46;53.00
65157;BME280;52745;49.794;18.258;2023-03-05T13:35:58;-16026.94;;;3.35;51.78
65157;BME280;52745;49.794;18.258;2023-03-05T13:38:30;-16022.56;;;3.19;52.66
65157;BME280;52745;49.794;18.258;2023-03-05T13:41:06;-16026.13;;;3.32;52.75
65157;BME280;52745;49.794;18.258;2023-03-05T13:43:44;-16021.19;;;3.14;53.32
65157;BME280;52745;49.794;18.258;2023-03-05T13:46:12;-16022.56;;;3.19;53.05
65157;BME280;52745;49.794;18.258;2023-03-05T13:48:38;-16020.94;;;3.13;53.49
65157;BME280;52745;49.794;18.258;2023-03-05T13:51:05;-16018.59;;;3.04;53.19
65157;BME280;52745;49.794;18.258;2023-03-05T13:53:34;-16021.34;;;3.14;53.52
65157;BME280;52745;49.794;18.258;2023-03-05T13:56:06;-16022.03;;;3.17;53.90
65157;BME280;52745;49.794;18.258;2023-03-05T13:58:51;-16020.50;;;3.11;53.49
65157;BME280;52745;49.794;18.258;2023-03-05T14:03:52;-16018.47;;;3.03;54.12
65157;BME280;52745;49.794;18.258;2023-03-05T14:06:23;-16016.69;;;2.97;54.41
65157;BME280;52745;49.794;18.258;2023-03-05T14:08:53;-16016.69;;;2.97;56.06
65157;BME280;52745;49.794;18.258;2023-03-05T14:11:20;-16014.50;;;2.88;56.02
65157;BME280;52745;49.794;18.258;2023-03-05T14:13:47;-16014.34;;;2.88;56.93
65157;BME280;52745;49.794;18.258;2023-03-05T14:16:26;-16012.16;;;2.80;57.48
65157;BME280;52745;49.794;18.258;2023-03-05T14:18:56;-16013.41;;;2.84;57.65